sensor_id;sensor_type;location;lat;lon;timestamp;pressure;altitude;pressure_sealevel;temperature;humidity
26112;BME280;13829;48.990;8.346;2022-08-16T00:01:22;99718.34;;;19.77;88.53
26112;BME280;13829;48.990;8.346;2022-08-16T00:03:49;99719.94;;;19.81;88.24
26112;BME280;13829;48.990;8.346;2022-08-16T00:06:17;99713.81;;;19.99;85.77
26112;BME280;13829;48.990;8.346;2022-08-16T00:08:44;99719.97;;;20.01;84.92
26112;BME280;13829;48.990;8.346;2022-08-16T00:11:12;99716.25;;;19.85;85.12
26112;BME280;13829;48.990;8.346;2022-08-16T00:13:39;99725.53;;;19.75;85.57
26112;BME280;13829;48.990;8.346;2022-08-16T00:16:07;99722.38;;;19.66;86.27
26112;BME280;13829;48.990;8.346;2022-08-16T00:18:34;99722.78;;;19.57;86.46
26112;BME280;13829;48.990;8.346;2022-08-16T00:21:01;99725.56;;;19.54;86.83
26112;BME280;13829;48.990;8.346;2022-08-16T00:23:30;99719.06;;;19.39;87.39
26112;BME280;13829;48.990;8.346;2022-08-16T00:25:57;99722.06;;;19.31;87.90
26112;BME280;13829;48.990;8.346;2022-08-16T00:28:25;99720.28;;;19.32;88.27
26112;BME280;13829;48.990;8.346;2022-08-16T00:30:52;99722.16;;;19.30;88.47
26112;BME280;13829;48.990;8.346;2022-08-16T00:33:19;99715.25;;;19.24;88.80
26112;BME280;13829;48.990;8.346;2022-08-16T00:35:45;99715.97;;;19.29;88.73
26112;BME280;13829;48.990;8.346;2022-08-16T00:38:12;99710.88;;;19.23;88.47
26112;BME280;13829;48.990;8.346;2022-08-16T00:40:45;99719.13;;;19.17;88.87
26112;BME280;13829;48.990;8.346;2022-08-16T00:43:18;99713.06;;;19.13;89.26
26112;BME280;13829;48.990;8.346;2022-08-16T00:46:00;99715.06;;;19.08;89.66
26112;BME280;13829;48.990;8.346;2022-08-16T00:48:32;99728.31;;;19.10;90.07
26112;BME280;13829;48.990;8.346;2022-08-16T00:51:00;99727.69;;;19.03;90.32
26112;BME280;13829;48.990;8.346;2022-08-16T00:53:29;99727.63;;;19.04;90.52
26112;BME280;13829;48.990;8.346;2022-08-16T00:56:03;99726.09;;;18.99;90.78
26112;BME280;13829;48.990;8.346;2022-08-16T00:58:34;99723.59;;;18.94;91.14
26112;BME280;13829;48.990;8.346;2022-08-16T01:01:02;99727.06;;;18.96;90.92
26112;BME280;13829;48.990;8.346;2022-08-16T01:03:29;99732.38;;;18.96;90.81
26112;BME280;13829;48.990;8.346;2022-08-16T01:05:57;99731.72;;;18.91;91.36
26112;BME280;13829;48.990;8.346;2022-08-16T01:08:25;99722.97;;;19.10;90.25
26112;BME280;13829;48.990;8.346;2022-08-16T01:10:54;99730.22;;;18.84;91.18
26112;BME280;13829;48.990;8.346;2022-08-16T01:13:26;99733.13;;;18.78;91.89
26112;BME280;13829;48.990;8.346;2022-08-16T01:15:58;99727.53;;;18.84;92.25
26112;BME280;13829;48.990;8.346;2022-08-16T01:18:35;99734.97;;;18.75;92.58
26112;BME280;13829;48.990;8.346;2022-08-16T01:21:18;99729.88;;;18.69;93.34
26112;BME280;13829;48.990;8.346;2022-08-16T01:24:01;99722.19;;;18.62;93.65
26112;BME280;13829;48.990;8.346;2022-08-16T01:26:33;99724.78;;;18.63;94.27
26112;BME280;13829;48.990;8.346;2022-08-16T01:29:05;99730.25;;;18.60;94.37
26112;BME280;13829;48.990;8.346;2022-08-16T01:31:34;99729.19;;;18.64;94.20
26112;BME280;13829;48.990;8.346;2022-08-16T01:34:01;99726.41;;;18.67;94.00
26112;BME280;13829;48.990;8.346;2022-08-16T01:36:30;99736.38;;;18.62;94.45
26112;BME280;13829;48.990;8.346;2022-08-16T01:38:58;99730.19;;;18.62;94.88
26112;BME280;13829;48.990;8.346;2022-08-16T01:41:28;99731.84;;;18.64;94.86
26112;BME280;13829;48.990;8.346;2022-08-16T01:43:56;99726.66;;;18.61;95.59
26112;BME280;13829;48.990;8.346;2022-08-16T01:46:28;99739.09;;;18.61;95.37
26112;BME280;13829;48.990;8.346;2022-08-16T01:49:00;99734.41;;;18.67;95.38
26112;BME280;13829;48.990;8.346;2022-08-16T01:51:28;99739.38;;;18.53;96.60
26112;BME280;13829;48.990;8.346;2022-08-16T01:53:55;99738.84;;;18.45;97.24
26112;BME280;13829;48.990;8.346;2022-08-16T01:56:25;99733.16;;;18.54;97.62
26112;BME280;13829;48.990;8.346;2022-08-16T01:58:56;99731.09;;;18.61;96.88
26112;BME280;13829;48.990;8.346;2022-08-16T02:01:24;99736.03;;;18.48;97.86
26112;BME280;13829;48.990;8.346;2022-08-16T02:03:52;99734.06;;;18.53;97.92
26112;BME280;13829;48.990;8.346;2022-08-16T02:06:19;99731.16;;;18.59;97.55
26112;BME280;13829;48.990;8.346;2022-08-16T02:08:46;99726.91;;;18.55;98.08
26112;BME280;13829;48.990;8.346;2022-08-16T02:11:14;99720.59;;;18.57;98.19
26112;BME280;13829;48.990;8.346;2022-08-16T02:13:42;99728.50;;;18.59;98.03
26112;BME280;13829;48.990;8.346;2022-08-16T02:16:11;99725.53;;;18.45;98.22
26112;BME280;13829;48.990;8.346;2022-08-16T02:18:39;99724.31;;;18.30;98.79
26112;BME280;13829;48.990;8.346;2022-08-16T02:21:08;99720.88;;;18.26;99.40
26112;BME280;13829;48.990;8.346;2022-08-16T02:23:37;99730.69;;;18.25;100.00
26112;BME280;13829;48.990;8.346;2022-08-16T02:26:04;99731.75;;;18.20;100.00
26112;BME280;13829;48.990;8.346;2022-08-16T02:28:32;99728.19;;;18.21;100.00
26112;BME280;13829;48.990;8.346;2022-08-16T02:31:07;99727.66;;;18.11;100.00
26112;BME280;13829;48.990;8.346;2022-08-16T02:33:35;99723.16;;;18.13;100.00
26112;BME280;13829;48.990;8.346;2022-08-16T02:36:05;99722.84;;;18.21;100.00
26112;BME280;13829;48.990;8.346;2022-08-16T02:38:32;99725.06;;;18.33;100.00
26112;BME280;13829;48.990;8.346;2022-08-16T02:41:01;99728.06;;;18.24;100.00
26112;BME280;13829;48.990;8.346;2022-08-16T02:43:32;99721.81;;;18.25;100.00
26112;BME280;13829;48.990;8.346;2022-08-16T02:46:02;99720.06;;;18.24;100.00
26112;BME280;13829;48.990;8.346;2022-08-16T02:48:29;99715.19;;;18.35;100.00
26112;BME280;13829;48.990;8.346;2022-08-16T02:50:58;99708.97;;;18.36;100.00
26112;BME280;13829;48.990;8.346;2022-08-16T02:53:25;99700.41;;;18.28;100.00
26112;BME280;13829;48.990;8.346;2022-08-16T02:55:52;99697.31;;;18.39;100.00
26112;BME280;13829;48.990;8.346;2022-08-16T02:58:20;99689.28;;;18.40;100.00
26112;BME280;13829;48.990;8.346;2022-08-16T03:00:48;99689.69;;;18.30;100.00
26112;BME280;13829;48.990;8.346;2022-08-16T03:03:17;99687.22;;;18.25;100.00
26112;BME280;13829;48.990;8.346;2022-08-16T03:05:46;99688.94;;;18.26;100.00
26112;BME280;13829;48.990;8.346;2022-08-16T03:08:13;99683.84;;;18.20;100.00
26112;BME280;13829;48.990;8.346;2022-08-16T03:10:40;99687.94;;;18.06;100.00
26112;BME280;13829;48.990;8.346;2022-08-16T03:13:07;99682.75;;;18.02;100.00
26112;BME280;13829;48.990;8.346;2022-08-16T03:15:34;99677.22;;;18.08;100.00
26112;BME280;13829;48.990;8.346;2022-08-16T03:18:01;99676.63;;;18.00;100.00
26112;BME280;13829;48.990;8.346;2022-08-16T03:20:30;99681.19;;;17.96;100.00
26112;BME280;13829;48.990;8.346;2022-08-16T03:22:56;99681.09;;;17.99;100.00
26112;BME280;13829;48.990;8.346;2022-08-16T03:25:23;99680.44;;;17.92;100.00
26112;BME280;13829;48.990;8.346;2022-08-16T03:27:51;99685.38;;;18.03;100.00
26112;BME280;13829;48.990;8.346;2022-08-16T03:30:24;99682.59;;;18.06;100.00
26112;BME280;13829;48.990;8.346;2022-08-16T03:32:52;99684.97;;;18.14;100.00
26112;BME280;13829;48.990;8.346;2022-08-16T03:35:24;99686.19;;;18.05;100.00
26112;BME280;13829;48.990;8.346;2022-08-16T03:37:57;99689.06;;;17.99;100.00
26112;BME280;13829;48.990;8.346;2022-08-16T03:40:26;99692.44;;;18.04;100.00
26112;BME280;13829;48.990;8.346;2022-08-16T03:42:53;99694.56;;;17.95;100.00
26112;BME280;13829;48.990;8.346;2022-08-16T03:45:21;99688.91;;;18.04;100.00
26112;BME280;13829;48.990;8.346;2022-08-16T03:47:51;99690.84;;;17.99;100.00
26112;BME280;13829;48.990;8.346;2022-08-16T03:50:18;99689.75;;;18.04;100.00
26112;BME280;13829;48.990;8.346;2022-08-16T03:52:45;99690.28;;;18.14;100.00
26112;BME280;13829;48.990;8.346;2022-08-16T03:55:14;99687.94;;;18.06;100.00
26112;BME280;13829;48.990;8.346;2022-08-16T03:57:41;99688.03;;;18.03;100.00
26112;BME280;13829;48.990;8.346;2022-08-16T04:00:13;99684.63;;;18.23;100.00
26112;BME280;13829;48.990;8.346;2022-08-16T04:02:41;99693.13;;;18.09;100.00
26112;BME280;13829;48.990;8.346;2022-08-16T04:05:09;99690.13;;;17.95;100.00
26112;BME280;13829;48.990;8.346;2022-08-16T04:07:37;99694.56;;;17.95;100.00
26112;BME280;13829;48.990;8.346;2022-08-16T04:10:07;99688.16;;;18.00;100.00
26112;BME280;13829;48.990;8.346;2022-08-16T04:12:37;99688.84;;;18.05;100.00
26112;BME280;13829;48.990;8.346;2022-08-16T04:15:09;99691.28;;;18.12;100.00
26112;BME280;13829;48.990;8.346;2022-08-16T04:17:37;99693.97;;;18.10;100.00
26112;BME280;13829;48.990;8.346;2022-08-16T04:20:05;99689.75;;;18.04;100.00
26112;BME280;13829;48.990;8.346;2022-08-16T04:22:34;99695.03;;;18.06;100.00
26112;BME280;13829;48.990;8.346;2022-08-16T04:25:02;99697.38;;;17.90;100.00
26112;BME280;13829;48.990;8.346;2022-08-16T04:27:30;99694.16;;;18.05;100.00
26112;BME280;13829;48.990;8.346;2022-08-16T04:30:00;99698.03;;;17.97;100.00
26112;BME280;13829;48.990;8.346;2022-08-16T04:32:27;99697.91;;;18.00;100.00
26112;BME280;13829;48.990;8.346;2022-08-16T04:34:54;99705.50;;;18.11;100.00
26112;BME280;13829;48.990;8.346;2022-08-16T04:37:21;99703.75;;;18.09;100.00
26112;BME280;13829;48.990;8.346;2022-08-16T04:39:48;99703.63;;;18.13;100.00
26112;BME280;13829;48.990;8.346;2022-08-16T04:42:16;99710.59;;;18.17;100.00
26112;BME280;13829;48.990;8.346;2022-08-16T04:44:45;99713.94;;;18.22;100.00
26112;BME280;13829;48.990;8.346;2022-08-16T04:47:13;99720.44;;;18.38;100.00
26112;BME280;13829;48.990;8.346;2022-08-16T04:49:40;99717.47;;;18.68;100.00
26112;BME280;13829;48.990;8.346;2022-08-16T04:52:09;99718.06;;;18.77;98.49
26112;BME280;13829;48.990;8.346;2022-08-16T04:54:37;99721.09;;;18.67;99.55
26112;BME280;13829;48.990;8.346;2022-08-16T04:57:05;99726.19;;;18.73;100.00
26112;BME280;13829;48.990;8.346;2022-08-16T04:59:32;99727.41;;;18.87;99.25
26112;BME280;13829;48.990;8.346;2022-08-16T05:01:59;99728.94;;;18.94;98.58
26112;BME280;13829;48.990;8.346;2022-08-16T05:04:27;99730.84;;;18.90;98.94
26112;BME280;13829;48.990;8.346;2022-08-16T05:06:56;99736.13;;;18.92;98.71
26112;BME280;13829;48.990;8.346;2022-08-16T05:09:23;99733.63;;;19.10;97.19
26112;BME280;13829;48.990;8.346;2022-08-16T05:11:50;99726.88;;;19.23;95.12
26112;BME280;13829;48.990;8.346;2022-08-16T05:14:17;99727.00;;;19.20;95.57
26112;BME280;13829;48.990;8.346;2022-08-16T05:16:44;99732.22;;;19.23;94.93
26112;BME280;13829;48.990;8.346;2022-08-16T05:19:11;99736.47;;;19.27;95.26
26112;BME280;13829;48.990;8.346;2022-08-16T05:21:39;99739.81;;;19.32;95.38
26112;BME280;13829;48.990;8.346;2022-08-16T05:24:07;99735.28;;;19.34;93.86
26112;BME280;13829;48.990;8.346;2022-08-16T05:26:35;99739.03;;;19.51;92.94
26112;BME280;13829;48.990;8.346;2022-08-16T05:29:03;99745.22;;;19.51;92.87
26112;BME280;13829;48.990;8.346;2022-08-16T05:31:32;99748.56;;;19.56;92.83
26112;BME280;13829;48.990;8.346;2022-08-16T05:34:01;99746.03;;;19.74;92.09
26112;BME280;13829;48.990;8.346;2022-08-16T05:36:29;99753.19;;;19.94;89.12
26112;BME280;13829;48.990;8.346;2022-08-16T05:38:57;99760.66;;;19.86;89.90
26112;BME280;13829;48.990;8.346;2022-08-16T05:41:24;99753.19;;;19.94;90.98
26112;BME280;13829;48.990;8.346;2022-08-16T05:43:51;99753.78;;;20.01;89.35
26112;BME280;13829;48.990;8.346;2022-08-16T05:46:18;99747.72;;;19.97;90.42
26112;BME280;13829;48.990;8.346;2022-08-16T05:48:45;99752.66;;;20.07;91.84
26112;BME280;13829;48.990;8.346;2022-08-16T05:51:12;99754.06;;;20.15;92.19
26112;BME280;13829;48.990;8.346;2022-08-16T05:53:39;99749.94;;;20.27;91.65
26112;BME280;13829;48.990;8.346;2022-08-16T05:56:07;99755.75;;;20.37;90.54
26112;BME280;13829;48.990;8.346;2022-08-16T05:58:34;99749.22;;;20.43;91.30
26112;BME280;13829;48.990;8.346;2022-08-16T06:01:02;99759.25;;;20.37;90.71
26112;BME280;13829;48.990;8.346;2022-08-16T06:03:29;99766.63;;;20.32;90.84
26112;BME280;13829;48.990;8.346;2022-08-16T06:05:56;99768.38;;;20.33;91.83
26112;BME280;13829;48.990;8.346;2022-08-16T06:08:23;99772.91;;;20.31;92.50
26112;BME280;13829;48.990;8.346;2022-08-16T06:10:51;99775.56;;;20.31;93.19
26112;BME280;13829;48.990;8.346;2022-08-16T06:13:20;99770.88;;;20.36;93.60
26112;BME280;13829;48.990;8.346;2022-08-16T06:15:47;99767.94;;;20.43;93.88
26112;BME280;13829;48.990;8.346;2022-08-16T06:18:17;99774.56;;;20.53;93.42
26112;BME280;13829;48.990;8.346;2022-08-16T06:20:44;99772.13;;;20.67;92.65
26112;BME280;13829;48.990;8.346;2022-08-16T06:23:11;99778.44;;;20.85;92.50
26112;BME280;13829;48.990;8.346;2022-08-16T06:25:38;99779.84;;;21.12;92.92
26112;BME280;13829;48.990;8.346;2022-08-16T06:28:08;99780.19;;;21.41;89.87
26112;BME280;13829;48.990;8.346;2022-08-16T06:30:37;99778.22;;;21.63;87.83
26112;BME280;13829;48.990;8.346;2022-08-16T06:33:04;99772.63;;;21.86;87.46
26112;BME280;13829;48.990;8.346;2022-08-16T06:35:31;99768.28;;;22.01;86.65
26112;BME280;13829;48.990;8.346;2022-08-16T06:37:58;99774.66;;;21.98;86.69
26112;BME280;13829;48.990;8.346;2022-08-16T06:40:25;99772.66;;;22.19;86.33
26112;BME280;13829;48.990;8.346;2022-08-16T06:42:52;99772.50;;;22.22;85.87
26112;BME280;13829;48.990;8.346;2022-08-16T06:45:21;99775.59;;;22.30;85.48
26112;BME280;13829;48.990;8.346;2022-08-16T06:47:50;99770.69;;;22.56;82.83
26112;BME280;13829;48.990;8.346;2022-08-16T06:50:18;99770.28;;;22.64;80.69
26112;BME280;13829;48.990;8.346;2022-08-16T06:52:45;99765.66;;;22.66;81.23
26112;BME280;13829;48.990;8.346;2022-08-16T06:55:14;99761.91;;;23.18;80.54
26112;BME280;13829;48.990;8.346;2022-08-16T06:57:43;99763.84;;;24.64;72.22
26112;BME280;13829;48.990;8.346;2022-08-16T07:00:12;99763.72;;;26.41;66.22
26112;BME280;13829;48.990;8.346;2022-08-16T07:02:40;99762.28;;;28.06;61.15
26112;BME280;13829;48.990;8.346;2022-08-16T07:05:12;99762.41;;;29.39;55.63
26112;BME280;13829;48.990;8.346;2022-08-16T07:07:40;99763.91;;;30.69;51.77
26112;BME280;13829;48.990;8.346;2022-08-16T07:10:09;99766.63;;;31.49;48.59
26112;BME280;13829;48.990;8.346;2022-08-16T07:12:37;99765.94;;;32.33;45.70
26112;BME280;13829;48.990;8.346;2022-08-16T07:15:05;99769.56;;;32.24;43.42
26112;BME280;13829;48.990;8.346;2022-08-16T07:17:34;99764.16;;;32.52;41.67
26112;BME280;13829;48.990;8.346;2022-08-16T07:20:03;99762.19;;;33.00;41.12
26112;BME280;13829;48.990;8.346;2022-08-16T07:22:32;99756.28;;;33.59;38.14
26112;BME280;13829;48.990;8.346;2022-08-16T07:24:59;99758.06;;;33.68;38.32
26112;BME280;13829;48.990;8.346;2022-08-16T07:27:26;99766.78;;;33.72;37.31
26112;BME280;13829;48.990;8.346;2022-08-16T07:29:54;99762.19;;;33.90;37.45
26112;BME280;13829;48.990;8.346;2022-08-16T07:32:21;99755.84;;;34.08;36.63
26112;BME280;13829;48.990;8.346;2022-08-16T07:34:48;99758.38;;;34.09;36.13
26112;BME280;13829;48.990;8.346;2022-08-16T07:37:15;99749.84;;;34.04;36.62
26112;BME280;13829;48.990;8.346;2022-08-16T07:39:43;99759.97;;;34.46;35.42
26112;BME280;13829;48.990;8.346;2022-08-16T07:42:11;99759.50;;;34.59;35.25
26112;BME280;13829;48.990;8.346;2022-08-16T07:44:38;99754.69;;;34.53;35.09
26112;BME280;13829;48.990;8.346;2022-08-16T07:47:05;99756.63;;;34.61;34.91
26112;BME280;13829;48.990;8.346;2022-08-16T07:49:32;99758.78;;;34.49;34.54
26112;BME280;13829;48.990;8.346;2022-08-16T07:51:59;99767.22;;;34.64;35.12
26112;BME280;13829;48.990;8.346;2022-08-16T07:54:26;99766.16;;;35.00;34.56
26112;BME280;13829;48.990;8.346;2022-08-16T07:56:54;99767.22;;;35.07;33.56
26112;BME280;13829;48.990;8.346;2022-08-16T07:59:21;99770.91;;;34.89;34.05
26112;BME280;13829;48.990;8.346;2022-08-16T08:01:50;99771.00;;;34.37;34.52
26112;BME280;13829;48.990;8.346;2022-08-16T08:04:18;99776.47;;;34.37;34.48
26112;BME280;13829;48.990;8.346;2022-08-16T08:06:45;99777.53;;;34.44;34.77
26112;BME280;13829;48.990;8.346;2022-08-16T08:09:12;99782.72;;;34.55;34.64
26112;BME280;13829;48.990;8.346;2022-08-16T08:11:39;99774.31;;;34.22;34.31
26112;BME280;13829;48.990;8.346;2022-08-16T08:14:08;99778.56;;;34.43;34.53
26112;BME280;13829;48.990;8.346;2022-08-16T08:16:37;99783.59;;;34.29;34.57
26112;BME280;13829;48.990;8.346;2022-08-16T08:19:04;99784.75;;;34.27;35.33
26112;BME280;13829;48.990;8.346;2022-08-16T08:21:33;99782.50;;;33.78;35.41
26112;BME280;13829;48.990;8.346;2022-08-16T08:24:00;99782.63;;;33.86;35.19
26112;BME280;13829;48.990;8.346;2022-08-16T08:26:27;99782.34;;;33.97;36.20
26112;BME280;13829;48.990;8.346;2022-08-16T08:28:54;99783.41;;;34.05;35.28
26112;BME280;13829;48.990;8.346;2022-08-16T08:31:23;99778.72;;;34.15;34.77
26112;BME280;13829;48.990;8.346;2022-08-16T08:33:49;99781.31;;;34.17;35.75
26112;BME280;13829;48.990;8.346;2022-08-16T08:36:27;99782.66;;;33.94;35.98
26112;BME280;13829;48.990;8.346;2022-08-16T08:38:55;99787.50;;;33.10;36.31
26112;BME280;13829;48.990;8.346;2022-08-16T08:41:22;99791.03;;;32.27;38.39
26112;BME280;13829;48.990;8.346;2022-08-16T08:43:54;99793.53;;;31.91;38.57
26112;BME280;13829;48.990;8.346;2022-08-16T08:46:24;99796.38;;;31.41;40.05
26112;BME280;13829;48.990;8.346;2022-08-16T08:48:53;99800.56;;;30.94;42.50
26112;BME280;13829;48.990;8.346;2022-08-16T08:51:21;99789.91;;;30.71;42.73
26112;BME280;13829;48.990;8.346;2022-08-16T08:53:48;99797.84;;;30.53;42.19
26112;BME280;13829;48.990;8.346;2022-08-16T08:56:15;99800.84;;;30.29;42.81
26112;BME280;13829;48.990;8.346;2022-08-16T08:58:42;99810.88;;;30.07;43.59
26112;BME280;13829;48.990;8.346;2022-08-16T09:01:09;99810.56;;;29.68;45.12
26112;BME280;13829;48.990;8.346;2022-08-16T09:03:38;99801.38;;;29.04;46.15
26112;BME280;13829;48.990;8.346;2022-08-16T09:06:07;99804.13;;;28.70;47.08
26112;BME280;13829;48.990;8.346;2022-08-16T09:08:34;99809.28;;;28.85;47.32
26112;BME280;13829;48.990;8.346;2022-08-16T09:11:01;99810.03;;;28.75;46.66
26112;BME280;13829;48.990;8.346;2022-08-16T09:13:29;99805.81;;;29.05;46.09
26112;BME280;13829;48.990;8.346;2022-08-16T09:15:58;99808.53;;;28.83;46.83
26112;BME280;13829;48.990;8.346;2022-08-16T09:18:25;99808.88;;;29.01;47.77
26112;BME280;13829;48.990;8.346;2022-08-16T09:20:55;99815.13;;;29.24;49.42
26112;BME280;13829;48.990;8.346;2022-08-16T09:23:24;99806.50;;;29.41;47.35
26112;BME280;13829;48.990;8.346;2022-08-16T09:25:51;99801.75;;;29.55;46.61
26112;BME280;13829;48.990;8.346;2022-08-16T09:28:18;99804.78;;;29.61;46.03
26112;BME280;13829;48.990;8.346;2022-08-16T09:30:45;99804.91;;;29.60;47.57
26112;BME280;13829;48.990;8.346;2022-08-16T09:33:15;99806.63;;;29.61;46.71
26112;BME280;13829;48.990;8.346;2022-08-16T09:35:45;99805.88;;;29.38;46.27
26112;BME280;13829;48.990;8.346;2022-08-16T09:38:13;99808.69;;;29.25;46.08
26112;BME280;13829;48.990;8.346;2022-08-16T09:40:43;99804.66;;;29.31;46.58
26112;BME280;13829;48.990;8.346;2022-08-16T09:43:16;99810.69;;;29.34;47.14
26112;BME280;13829;48.990;8.346;2022-08-16T09:45:44;99804.59;;;28.98;46.49
26112;BME280;13829;48.990;8.346;2022-08-16T09:48:13;99803.38;;;28.91;47.19
26112;BME280;13829;48.990;8.346;2022-08-16T09:50:42;99801.28;;;28.83;47.64
26112;BME280;13829;48.990;8.346;2022-08-16T09:53:15;99805.59;;;28.86;46.77
26112;BME280;13829;48.990;8.346;2022-08-16T09:55:45;99805.81;;;28.60;46.99
26112;BME280;13829;48.990;8.346;2022-08-16T09:58:13;99800.81;;;28.44;47.61
26112;BME280;13829;48.990;8.346;2022-08-16T10:00:40;99797.47;;;28.52;49.29
26112;BME280;13829;48.990;8.346;2022-08-16T10:03:08;99794.78;;;28.40;47.40
26112;BME280;13829;48.990;8.346;2022-08-16T10:05:35;99801.91;;;28.41;47.84
26112;BME280;13829;48.990;8.346;2022-08-16T10:08:04;99803.59;;;28.31;47.46
26112;BME280;13829;48.990;8.346;2022-08-16T10:10:34;99787.63;;;28.17;47.41
26112;BME280;13829;48.990;8.346;2022-08-16T10:13:02;99796.47;;;28.07;48.15
26112;BME280;13829;48.990;8.346;2022-08-16T10:15:39;99795.16;;;27.89;48.26
26112;BME280;13829;48.990;8.346;2022-08-16T10:18:09;99799.13;;;27.60;48.84
26112;BME280;13829;48.990;8.346;2022-08-16T10:20:43;99795.31;;;27.63;48.13
26112;BME280;13829;48.990;8.346;2022-08-16T10:23:13;99791.63;;;27.64;48.46
26112;BME280;13829;48.990;8.346;2022-08-16T10:25:44;99798.69;;;27.54;49.46
26112;BME280;13829;48.990;8.346;2022-08-16T10:28:13;99797.91;;;27.64;52.38
26112;BME280;13829;48.990;8.346;2022-08-16T10:30:40;99800.09;;;27.59;49.29
26112;BME280;13829;48.990;8.346;2022-08-16T10:33:08;99798.06;;;27.74;49.39
26112;BME280;13829;48.990;8.346;2022-08-16T10:35:35;99790.47;;;27.79;47.42
26112;BME280;13829;48.990;8.346;2022-08-16T10:38:02;99800.47;;;27.66;46.12
26112;BME280;13829;48.990;8.346;2022-08-16T10:40:29;99803.00;;;27.56;45.67
26112;BME280;13829;48.990;8.346;2022-08-16T10:42:58;99807.75;;;27.41;47.57
26112;BME280;13829;48.990;8.346;2022-08-16T10:45:26;99794.13;;;27.43;48.62
26112;BME280;13829;48.990;8.346;2022-08-16T10:47:55;99793.75;;;27.47;48.08
26112;BME280;13829;48.990;8.346;2022-08-16T10:50:22;99796.97;;;27.41;49.18
26112;BME280;13829;48.990;8.346;2022-08-16T10:52:50;99801.00;;;27.47;50.24
26112;BME280;13829;48.990;8.346;2022-08-16T10:55:19;99800.94;;;27.60;49.91
26112;BME280;13829;48.990;8.346;2022-08-16T10:57:46;99792.66;;;27.74;48.34
26112;BME280;13829;48.990;8.346;2022-08-16T11:00:17;99793.28;;;27.89;48.37
26112;BME280;13829;48.990;8.346;2022-08-16T11:02:44;99794.41;;;27.98;47.54
26112;BME280;13829;48.990;8.346;2022-08-16T11:05:15;99787.72;;;28.04;48.58
26112;BME280;13829;48.990;8.346;2022-08-16T11:07:49;99797.59;;;28.16;48.80
26112;BME280;13829;48.990;8.346;2022-08-16T11:10:20;99786.88;;;28.14;46.75
26112;BME280;13829;48.990;8.346;2022-08-16T11:12:48;99793.16;;;28.15;45.08
26112;BME280;13829;48.990;8.346;2022-08-16T11:15:17;99796.69;;;28.15;46.60
26112;BME280;13829;48.990;8.346;2022-08-16T11:17:44;99794.59;;;28.08;45.24
26112;BME280;13829;48.990;8.346;2022-08-16T11:20:12;99803.06;;;28.03;45.73
26112;BME280;13829;48.990;8.346;2022-08-16T11:22:42;99797.94;;;28.11;46.53
26112;BME280;13829;48.990;8.346;2022-08-16T11:25:11;99802.84;;;28.18;46.34
26112;BME280;13829;48.990;8.346;2022-08-16T11:27:38;99791.41;;;28.14;43.74
26112;BME280;13829;48.990;8.346;2022-08-16T11:30:10;99796.91;;;28.01;44.54
26112;BME280;13829;48.990;8.346;2022-08-16T11:32:40;99798.16;;;28.08;44.31
26112;BME280;13829;48.990;8.346;2022-08-16T11:35:12;99797.38;;;27.95;45.12
26112;BME280;13829;48.990;8.346;2022-08-16T11:37:40;99793.22;;;28.02;45.87
26112;BME280;13829;48.990;8.346;2022-08-16T11:40:09;99793.06;;;27.92;45.57
26112;BME280;13829;48.990;8.346;2022-08-16T11:42:36;99784.59;;;27.86;45.73
26112;BME280;13829;48.990;8.346;2022-08-16T11:45:04;99781.84;;;27.74;46.31
26112;BME280;13829;48.990;8.346;2022-08-16T11:47:31;99783.34;;;27.78;46.45
26112;BME280;13829;48.990;8.346;2022-08-16T11:49:59;99781.81;;;27.63;45.65
26112;BME280;13829;48.990;8.346;2022-08-16T11:52:27;99777.84;;;27.56;46.86
26112;BME280;13829;48.990;8.346;2022-08-16T11:54:54;99784.28;;;27.66;46.74
26112;BME280;13829;48.990;8.346;2022-08-16T11:57:21;99786.00;;;27.67;46.73
26112;BME280;13829;48.990;8.346;2022-08-16T11:59:47;99779.59;;;27.57;46.80
26112;BME280;13829;48.990;8.346;2022-08-16T12:02:14;99783.03;;;27.70;47.33
26112;BME280;13829;48.990;8.346;2022-08-16T12:04:41;99773.31;;;27.56;48.37
26112;BME280;13829;48.990;8.346;2022-08-16T12:07:11;99770.09;;;27.51;47.05
26112;BME280;13829;48.990;8.346;2022-08-16T12:09:39;99771.19;;;27.48;46.86
26112;BME280;13829;48.990;8.346;2022-08-16T12:12:06;99775.38;;;27.53;47.08
26112;BME280;13829;48.990;8.346;2022-08-16T12:14:34;99770.97;;;27.52;45.98
26112;BME280;13829;48.990;8.346;2022-08-16T12:17:02;99773.75;;;27.50;45.95
26112;BME280;13829;48.990;8.346;2022-08-16T12:19:30;99772.44;;;27.56;46.26
26112;BME280;13829;48.990;8.346;2022-08-16T12:21:58;99772.19;;;27.59;46.94
26112;BME280;13829;48.990;8.346;2022-08-16T12:24:27;99772.91;;;27.49;45.91
26112;BME280;13829;48.990;8.346;2022-08-16T12:26:55;99765.28;;;27.43;46.72
26112;BME280;13829;48.990;8.346;2022-08-16T12:29:22;99765.19;;;27.32;46.83
26112;BME280;13829;48.990;8.346;2022-08-16T12:31:49;99763.47;;;27.31;46.27
26112;BME280;13829;48.990;8.346;2022-08-16T12:34:16;99758.50;;;27.38;46.02
26112;BME280;13829;48.990;8.346;2022-08-16T12:36:44;99760.38;;;27.48;45.52
26112;BME280;13829;48.990;8.346;2022-08-16T12:39:12;99747.38;;;27.54;44.07
26112;BME280;13829;48.990;8.346;2022-08-16T12:41:41;99752.16;;;27.50;44.80
26112;BME280;13829;48.990;8.346;2022-08-16T12:44:11;99750.97;;;27.54;44.85
26112;BME280;13829;48.990;8.346;2022-08-16T12:46:40;99756.97;;;27.46;43.70
26112;BME280;13829;48.990;8.346;2022-08-16T12:49:07;99754.41;;;27.56;45.66
26112;BME280;13829;48.990;8.346;2022-08-16T12:51:39;99752.38;;;27.82;43.54
26112;BME280;13829;48.990;8.346;2022-08-16T12:54:08;99754.09;;;27.83;45.19
26112;BME280;13829;48.990;8.346;2022-08-16T12:56:37;99740.81;;;27.80;44.02
26112;BME280;13829;48.990;8.346;2022-08-16T12:59:09;99743.16;;;27.74;44.01
26112;BME280;13829;48.990;8.346;2022-08-16T13:01:37;99750.00;;;27.66;45.19
26112;BME280;13829;48.990;8.346;2022-08-16T13:04:07;99743.25;;;27.61;44.29